Time;durP1;ratioP1;P1;durP2;ratioP2;P2;SDS_P1;SDS_P2;PMS_P1;PMS_P2;Temp;Humidity;BMP_temperature;BMP_pressure;BME280_temperature;BME280_humidity;BME280_pressure;Samples;Min_cycle;Max_cycle;Signal;HPM_P1;HPM_P2
2022/03/17 00:00:37;;;;;;;15.90;14.13;;;12.60;99.40;;;;;;5080951;28;20185;-41
2022/03/17 00:03:03;;;;;;;17.75;14.35;;;12.60;99.40;;;;;;5075275;28;20495;-43
2022/03/17 00:05:29;;;;;;;15.65;13.85;;;12.60;99.50;;;;;;5083648;28;20138;-42
2022/03/17 00:07:54;;;;;;;16.40;13.63;;;12.60;99.50;;;;;;5072131;28;20428;-41
2022/03/17 00:10:20;;;;;;;17.50;14.43;;;12.60;99.50;;;;;;5083694;28;20032;-42
2022/03/17 00:12:47;;;;;;;17.48;15.57;;;12.60;99.50;;;;;;5072953;28;20119;-41
2022/03/17 00:15:14;;;;;;;17.83;15.00;;;12.60;99.60;;;;;;5084481;28;20070;-43
2022/03/17 00:17:41;;;;;;;18.60;15.73;;;12.60;99.90;;;;;;5071400;28;20759;-42
2022/03/17 00:20:10;;;;;;;18.83;15.95;;;12.60;99.90;;;;;;5085333;28;20416;-41
2022/03/17 00:22:36;;;;;;;19.45;16.55;;;12.50;99.70;;;;;;5070910;28;20037;-42
2022/03/17 00:25:04;;;;;;;15.80;14.10;;;12.50;99.80;;;;;;5084941;28;20475;-41
2022/03/17 00:27:30;;;;;;;18.80;16.40;;;12.50;99.80;;;;;;5072858;28;20028;-37
2022/03/17 00:29:56;;;;;;;19.23;16.75;;;12.50;99.80;;;;;;5082493;28;20082;-41
2022/03/17 00:32:23;;;;;;;17.20;15.18;;;12.50;99.90;;;;;;5077772;28;20089;-41
2022/03/17 00:37:33;;;;;;;20.20;17.30;;;12.50;99.90;;;;;;5078743;28;20044;-41
2022/03/17 00:39:59;;;;;;;18.17;16.27;;;12.50;99.90;;;;;;5085296;28;20036;-41
2022/03/17 00:42:24;;;;;;;19.23;16.58;;;12.50;99.90;;;;;;5080994;28;20044;-42
2022/03/17 00:44:50;;;;;;;19.48;17.35;;;12.50;99.90;;;;;;5081728;28;20920;-41
2022/03/17 00:47:16;;;;;;;18.95;16.77;;;12.50;99.90;;;;;;5084399;28;20024;-42
2022/03/17 00:49:41;;;;;;;18.02;16.13;;;12.40;99.90;;;;;;5078232;28;20031;-42
2022/03/17 00:52:10;;;;;;;16.48;14.70;;;12.50;99.90;;;;;;5086627;28;20020;-40
2022/03/17 00:54:39;;;;;;;18.33;15.90;;;12.50;99.90;;;;;;5076543;28;20028;-42
2022/03/17 00:57:06;;;;;;;20.85;17.83;;;12.50;99.90;;;;;;5085623;28;20051;-43
2022/03/17 00:59:32;;;;;;;22.73;19.40;;;12.40;99.90;;;;;;5076347;28;20036;-40
2022/03/17 01:01:57;;;;;;;19.60;17.25;;;12.40;99.90;;;;;;5087091;28;20020;-42
2022/03/17 01:04:23;;;;;;;17.77;15.85;;;12.40;99.90;;;;;;5075576;28;20028;-42
2022/03/17 01:06:48;;;;;;;17.80;15.88;;;12.40;99.90;;;;;;5087531;28;20024;-42
2022/03/17 01:09:14;;;;;;;24.20;19.45;;;12.40;99.90;;;;;;5075020;28;20040;-42
2022/03/17 01:11:39;;;;;;;23.17;19.50;;;12.40;99.90;;;;;;5086408;28;20024;-42
2022/03/17 01:14:05;;;;;;;20.42;18.23;;;12.30;99.90;;;;;;5075161;28;20029;-42
2022/03/17 01:16:30;;;;;;;19.67;16.98;;;12.30;99.90;;;;;;5087216;28;20486;-42
2022/03/17 01:18:56;;;;;;;22.38;18.05;;;12.30;99.90;;;;;;5076841;28;20039;-41
2022/03/17 01:21:21;;;;;;;19.95;17.13;;;12.30;99.90;;;;;;5084981;28;20514;-40
2022/03/17 01:23:47;;;;;;;17.88;14.50;;;12.30;99.90;;;;;;5079900;28;20174;-41
2022/03/17 01:26:12;;;;;;;20.15;17.55;;;12.30;99.90;;;;;;5080921;28;20451;-42
2022/03/17 01:28:38;;;;;;;20.83;17.30;;;12.30;99.90;;;;;;5083465;28;20105;-43
2022/03/17 01:31:04;;;;;;;21.15;17.85;;;12.30;99.90;;;;;;5077886;28;20506;-42
2022/03/17 01:33:30;;;;;;;20.55;16.50;;;12.30;99.90;;;;;;5085554;28;20020;-42
2022/03/17 01:35:55;;;;;;;23.55;19.98;;;12.30;99.90;;;;;;5074984;28;20024;-43
2022/03/17 01:38:21;;;;;;;21.98;19.17;;;12.30;99.90;;;;;;5085213;28;20075;-40
2022/03/17 01:40:46;;;;;;;21.92;18.73;;;12.30;99.90;;;;;;5075329;28;20020;-41
2022/03/17 01:43:12;;;;;;;19.25;16.63;;;12.30;99.90;;;;;;5086220;28;20051;-41
2022/03/17 01:45:37;;;;;;;19.85;17.48;;;12.40;99.90;;;;;;5073328;28;20020;-42
2022/03/17 01:48:04;;;;;;;21.85;17.70;;;12.30;99.90;;;;;;5081515;28;20028;-41
2022/03/17 01:50:30;;;;;;;19.88;17.00;;;12.40;99.90;;;;;;5079232;28;20055;-42
2022/03/17 01:52:55;;;;;;;22.08;17.80;;;12.40;99.90;;;;;;5065424;28;20056;-40
2022/03/17 01:55:21;;;;;;;19.27;16.05;;;12.40;99.90;;;;;;5077763;28;20032;-42
2022/03/17 01:57:48;;;;;;;18.73;16.42;;;12.40;99.90;;;;;;5067279;28;20836;-41
2022/03/17 02:00:17;;;;;;;18.20;15.70;;;12.40;99.90;;;;;;5074544;28;20024;-44
2022/03/17 02:02:44;;;;;;;17.98;15.60;;;12.40;99.90;;;;;;5069841;28;20070;-43
2022/03/17 02:05:10;;;;;;;16.73;14.07;;;12.50;99.90;;;;;;5073246;28;20024;-43
2022/03/17 02:07:35;;;;;;;20.17;16.23;;;12.50;99.90;;;;;;5072052;28;20028;-42
2022/03/17 02:10:01;;;;;;;17.05;14.27;;;12.60;99.90;;;;;;5069823;28;20024;-43
2022/03/17 02:15:11;;;;;;;17.27;14.40;;;12.60;99.90;;;;;;5069796;28;20130;-41
2022/03/17 02:17:41;;;;;;;19.15;16.35;;;12.60;99.90;;;;;;5074926;28;20095;-41
2022/03/17 02:20:10;;;;;;;18.50;16.00;;;12.70;99.90;;;;;;5067779;28;20027;-41
2022/03/17 02:22:44;;;;;;;19.88;15.82;;;12.70;99.90;;;;;;5076007;28;20033;-40
2022/03/17 02:27:55;;;;;;;18.10;15.27;;;12.70;99.90;;;;;;5076329;28;20043;-40
2022/03/17 02:30:22;;;;;;;18.48;14.00;;;12.70;99.90;;;;;;5085185;28;20068;-41
2022/03/17 02:32:48;;;;;;;18.67;15.65;;;12.70;99.90;;;;;;5074619;28;20093;-40
2022/03/17 02:35:22;;;;;;;18.70;14.98;;;12.70;99.90;;;;;;5084237;28;20082;-43
2022/03/17 02:37:48;;;;;;;16.58;14.05;;;12.70;99.90;;;;;;5074400;28;20054;-41
2022/03/17 02:40:14;;;;;;;18.80;15.38;;;12.70;99.90;;;;;;5085365;28;20035;-43
2022/03/17 02:42:39;;;;;;;21.95;16.23;;;12.70;99.90;;;;;;5073337;28;20037;-42
2022/03/17 02:45:07;;;;;;;18.95;15.57;;;12.80;99.90;;;;;;5086143;28;20028;-42
2022/03/17 02:47:33;;;;;;;21.35;16.38;;;12.80;99.90;;;;;;5073319;28;20698;-42
2022/03/17 02:49:59;;;;;;;19.08;16.10;;;12.80;99.90;;;;;;5084986;28;20527;-41
2022/03/17 02:52:26;;;;;;;20.58;16.38;;;12.80;99.90;;;;;;5073842;28;20115;-42
2022/03/17 02:54:53;;;;;;;17.55;15.20;;;12.80;99.90;;;;;;5065480;28;20024;-41
2022/03/17 02:57:19;;;;;;;19.10;15.93;;;12.80;99.90;;;;;;5074788;28;20064;-43
2022/03/17 02:59:46;;;;;;;19.45;16.13;;;12.80;99.90;;;;;;5066838;28;20072;-40
2022/03/17 03:02:13;;;;;;;19.17;15.75;;;12.80;99.90;;;;;;5072989;28;20056;-42
2022/03/17 03:04:39;;;;;;;16.75;14.02;;;12.80;99.90;;;;;;5069053;28;20031;-41
2022/03/17 03:07:06;;;;;;;20.63;16.02;;;12.80;99.90;;;;;;5070149;28;20359;-42
2022/03/17 03:09:32;;;;;;;18.83;15.45;;;12.80;99.90;;;;;;5072645;28;20559;-41
2022/03/17 03:11:58;;;;;;;23.35;17.67;;;12.80;99.90;;;;;;5066980;28;20147;-42
2022/03/17 03:14:24;;;;;;;19.70;16.05;;;12.70;99.90;;;;;;5075278;28;20534;-42
2022/03/17 03:16:50;;;;;;;19.60;16.33;;;12.70;99.90;;;;;;5065333;28;20016;-40
2022/03/17 03:19:16;;;;;;;23.98;18.65;;;12.70;99.90;;;;;;5076710;28;20165;-41
2022/03/17 03:21:45;;;;;;;20.92;16.33;;;12.70;99.90;;;;;;5066944;28;20027;-42
2022/03/17 03:24:12;;;;;;;23.58;17.77;;;12.60;99.90;;;;;;5076247;28;20162;-42
2022/03/17 03:26:40;;;;;;;25.35;20.20;;;12.60;99.90;;;;;;5065680;28;20024;-41
2022/03/17 03:29:17;;;;;;;25.75;18.85;;;12.50;99.90;;;;;;5077865;28;20029;-41
2022/03/17 03:31:42;;;;;;;25.15;18.80;;;12.40;99.90;;;;;;5064060;28;20483;-41
2022/03/17 03:34:08;;;;;;;26.58;19.45;;;12.30;99.90;;;;;;5077743;28;20059;-42
2022/03/17 03:39:18;;;;;;;21.23;18.13;;;12.20;99.90;;;;;;5076703;28;20144;-41
2022/03/17 03:41:43;;;;;;;20.38;16.73;;;12.10;99.90;;;;;;5064981;28;20107;-44
2022/03/17 03:44:13;;;;;;;27.90;20.38;;;12.10;99.90;;;;;;5077934;28;20530;-42
2022/03/17 03:46:39;;;;;;;23.58;19.52;;;12.00;99.90;;;;;;5064677;28;20127;-41
2022/03/17 03:49:04;;;;;;;27.58;20.95;;;12.00;99.90;;;;;;5075169;28;20749;-41
2022/03/17 03:51:29;;;;;;;22.58;18.60;;;12.00;99.90;;;;;;5067454;28;20032;-42
2022/03/17 03:54:14;;;;;;;22.08;17.33;;;11.90;99.90;;;;;;5071639;28;20535;-43
2022/03/17 03:56:51;;;;;;;21.65;17.65;;;11.90;99.90;;;;;;5067281;28;20028;-43
2022/03/17 03:59:22;;;;;;;18.58;15.35;;;11.80;99.90;;;;;;5073980;28;20039;-42
2022/03/17 04:01:53;;;;;;;17.30;13.95;;;11.80;99.90;;;;;;5066683;28;20411;-41
2022/03/17 04:04:19;;;;;;;14.50;13.00;;;11.70;99.90;;;;;;5072844;28;20150;-42
2022/03/17 04:06:50;;;;;;;14.88;12.27;;;11.70;99.90;;;;;;5069106;28;20021;-42
2022/03/17 04:09:17;;;;;;;11.45;10.18;;;11.60;99.90;;;;;;5074945;28;20077;-42
2022/03/17 04:11:44;;;;;;;11.05;9.55;;;11.50;99.90;;;;;;5074731;28;20081;-42
2022/03/17 04:14:11;;;;;;;10.43;8.80;;;11.50;99.90;;;;;;5072188;28;20146;-42
2022/03/17 04:16:37;;;;;;;9.20;8.02;;;11.50;99.90;;;;;;5077244;28;20089;-42
2022/03/17 04:19:04;;;;;;;10.38;8.57;;;11.40;99.90;;;;;;5069933;28;20511;-42
2022/03/17 04:21:30;;;;;;;7.53;6.72;;;11.40;99.90;;;;;;5078707;28;20020;-41
2022/03/17 04:23:57;;;;;;;5.55;5.05;;;11.40;99.90;;;;;;5069336;28;20016;-42
2022/03/17 04:26:22;;;;;;;5.10;4.38;;;11.30;99.90;;;;;;5079465;28;20475;-43
2022/03/17 04:28:48;;;;;;;4.32;3.65;;;11.30;99.90;;;;;;5067729;28;20487;-41
2022/03/17 04:31:13;;;;;;;4.15;3.40;;;11.20;99.90;;;;;;5080907;28;20025;-43
2022/03/17 04:33:39;;;;;;;3.92;3.00;;;11.10;99.90;;;;;;5068434;28;20045;-42
2022/03/17 04:36:06;;;;;;;3.33;3.03;;;11.00;99.90;;;;;;5080100;28;20032;-43
2022/03/17 04:38:32;;;;;;;3.65;2.60;;;11.00;99.90;;;;;;5068520;28;20041;-41
2022/03/17 04:40:58;;;;;;;3.60;2.67;;;10.90;99.90;;;;;;5079826;28;20028;-42
2022/03/17 04:43:24;;;;;;;3.17;2.58;;;10.90;99.90;;;;;;5068427;28;20055;-43
2022/03/17 04:45:49;;;;;;;4.00;2.63;;;10.90;99.90;;;;;;5077258;28;20055;-42
2022/03/17 04:48:15;;;;;;;3.20;2.90;;;10.80;99.90;;;;;;5071059;28;20060;-41
2022/03/17 04:50:41;;;;;;;4.95;3.95;;;10.70;99.90;;;;;;5073948;28;20048;-41
2022/03/17 04:55:51;;;;;;;4.50;3.70;;;10.60;99.90;;;;;;5073342;28;20060;-39
2022/03/17 04:58:17;;;;;;;5.28;4.30;;;10.50;99.90;;;;;;5073884;28;20044;-42
2022/03/17 05:00:43;;;;;;;5.03;4.20;;;10.60;99.90;;;;;;5071686;28;20042;-43
2022/03/17 05:03:09;;;;;;;5.22;4.40;;;10.50;99.90;;;;;;5075712;28;20024;-44
2022/03/17 05:05:35;;;;;;;6.88;3.85;;;10.60;99.90;;;;;;5068849;28;20040;-42
2022/03/17 05:08:01;;;;;;;10.10;5.15;;;10.50;99.90;;;;;;5079156;28;20438;-42
2022/03/17 05:10:29;;;;;;;6.90;4.60;;;10.50;99.90;;;;;;5068828;28;20044;-43
2022/03/17 05:12:58;;;;;;;6.63;4.57;;;10.50;99.90;;;;;;5078911;28;20467;-43
2022/03/17 05:15:24;;;;;;;5.75;4.32;;;10.50;99.90;;;;;;5069091;28;20077;-42
2022/03/17 05:17:50;;;;;;;6.03;5.03;;;10.50;99.90;;;;;;5077006;28;20043;-43
2022/03/17 05:20:16;;;;;;;11.70;6.20;;;10.50;99.90;;;;;;5068012;28;20042;-42
2022/03/17 05:22:42;;;;;;;10.13;6.00;;;10.40;99.90;;;;;;5079444;28;20028;-42
2022/03/17 05:25:09;;;;;;;9.45;6.30;;;10.40;99.90;;;;;;5067021;28;20031;-42
2022/03/17 05:27:39;;;;;;;7.65;6.18;;;10.40;99.90;;;;;;5079689;28;20105;-41
2022/03/17 05:30:05;;;;;;;9.68;5.65;;;10.30;99.90;;;;;;5067649;28;20032;-42
2022/03/17 05:32:31;;;;;;;12.60;6.38;;;10.30;99.90;;;;;;5077050;28;20846;-42
2022/03/17 05:34:56;;;;;;;9.95;5.55;;;10.30;99.90;;;;;;5069769;28;20028;-41
2022/03/17 05:37:22;;;;;;;8.60;5.28;;;10.20;99.90;;;;;;5074827;28;20060;-42
2022/03/17 05:39:47;;;;;;;7.80;4.60;;;10.20;99.90;;;;;;5070709;28;20036;-42
2022/03/17 05:42:13;;;;;;;10.52;4.32;;;10.20;99.90;;;;;;5072599;28;20016;-41
2022/03/17 05:44:41;;;;;;;9.60;4.40;;;10.20;99.90;;;;;;5074051;28;20039;-42
2022/03/17 05:47:07;;;;;;;11.15;4.20;;;10.20;99.90;;;;;;5069860;28;20024;-42
2022/03/17 05:49:32;;;;;;;9.63;4.00;;;10.20;99.90;;;;;;5076995;28;20040;-40
2022/03/17 05:51:59;;;;;;;7.22;3.67;;;10.10;99.90;;;;;;5067192;28;20020;-41
2022/03/17 05:54:25;;;;;;;12.27;4.07;;;10.10;99.90;;;;;;5078438;28;20028;-42
2022/03/17 05:56:50;;;;;;;11.60;3.28;;;10.00;99.90;;;;;;5067693;28;20036;-42
2022/03/17 05:59:16;;;;;;;13.75;3.75;;;9.90;99.90;;;;;;5078060;28;20032;-38
2022/03/17 06:01:41;;;;;;;7.40;3.03;;;9.90;99.90;;;;;;5066615;28;20384;-42
2022/03/17 06:04:07;;;;;;;8.38;3.10;;;9.90;99.90;;;;;;5079429;28;20051;-41
2022/03/17 06:06:32;;;;;;;9.57;4.10;;;10.00;99.90;;;;;;5066616;28;20031;-42
2022/03/17 06:08:58;;;;;;;8.55;2.90;;;9.90;99.90;;;;;;5079134;28;20070;-42
2022/03/17 06:11:24;;;;;;;8.95;2.60;;;9.90;99.90;;;;;;5067029;28;20414;-42
2022/03/17 06:13:49;;;;;;;7.65;2.80;;;9.90;99.90;;;;;;5075381;28;20027;-43
2022/03/17 06:16:15;;;;;;;8.65;2.65;;;9.90;99.90;;;;;;5069420;28;20028;-41
2022/03/17 06:18:41;;;;;;;9.23;2.97;;;9.90;99.90;;;;;;5072766;28;20500;-40
2022/03/17 06:21:07;;;;;;;6.63;3.05;;;9.80;99.90;;;;;;5071835;28;20060;-41
2022/03/17 06:23:32;;;;;;;10.55;3.03;;;9.80;99.90;;;;;;5070854;28;20479;-41
2022/03/17 06:25:59;;;;;;;9.40;2.25;;;9.80;99.90;;;;;;5074201;28;20017;-40
2022/03/17 06:28:24;;;;;;;5.45;2.10;;;9.80;99.90;;;;;;5066856;28;20205;-41
2022/03/17 06:30:51;;;;;;;6.25;1.73;;;9.80;99.90;;;;;;5076546;28;20033;-40
2022/03/17 06:33:17;;;;;;;10.77;2.55;;;9.80;99.90;;;;;;5067506;28;20099;-42
2022/03/17 06:35:42;;;;;;;5.13;1.92;;;9.80;99.90;;;;;;5075813;28;20050;-41
2022/03/17 06:38:08;;;;;;;9.48;2.28;;;9.70;99.90;;;;;;5067092;28;20064;-42
2022/03/17 06:40:35;;;;;;;11.68;2.70;;;9.70;99.90;;;;;;5077546;28;20028;-41
2022/03/17 06:43:01;;;;;;;10.65;2.08;;;9.70;99.90;;;;;;5065589;28;20489;-41
2022/03/17 06:45:27;;;;;;;6.28;2.63;;;9.70;99.90;;;;;;5078920;28;20039;-40
2022/03/17 06:47:53;;;;;;;6.18;2.00;;;9.70;99.90;;;;;;5069078;28;20012;-40
2022/03/17 06:50:22;;;;;;;6.30;1.45;;;9.70;99.90;;;;;;5081084;28;20041;-41
2022/03/17 06:52:48;;;;;;;11.43;2.10;;;9.70;99.90;;;;;;5065590;28;20558;-40
2022/03/17 06:55:14;;;;;;;7.45;1.90;;;9.70;99.90;;;;;;5080819;28;20063;-42
2022/03/17 06:57:40;;;;;;;5.40;1.27;;;9.70;99.90;;;;;;5065780;28;20064;-41
2022/03/17 07:00:14;;;;;;;8.10;1.50;;;9.80;99.90;;;;;;5071485;28;20032;-42
2022/03/17 07:02:40;;;;;;;7.70;1.88;;;9.80;99.90;;;;;;5068062;28;20123;-42
2022/03/17 07:05:06;;;;;;;7.25;2.00;;;9.90;99.90;;;;;;5070784;28;20527;-42
2022/03/17 07:07:33;;;;;;;7.90;2.40;;;9.90;99.90;;;;;;5071490;28;20036;-41
2022/03/17 07:09:59;;;;;;;7.82;1.90;;;9.80;99.90;;;;;;5067233;28;20062;-43
2022/03/17 07:12:24;;;;;;;9.52;2.58;;;9.80;99.90;;;;;;5073780;28;20029;-41
2022/03/17 07:14:50;;;;;;;10.40;2.15;;;9.80;99.90;;;;;;5065645;28;20101;-42
2022/03/17 07:17:23;;;;;;;7.63;2.08;;;9.70;99.90;;;;;;5075756;28;20547;-42
2022/03/17 07:22:27;;;;;;;12.27;2.40;;;9.70;99.90;;;;;;5076639;28;20128;-41
2022/03/17 07:24:53;;;;;;;10.07;2.25;;;9.70;99.90;;;;;;5065063;28;20490;-42
2022/03/17 07:27:21;;;;;;;8.63;2.20;;;9.70;99.90;;;;;;5076564;28;20033;-40
2022/03/17 07:29:50;;;;;;;7.18;2.05;;;9.70;99.90;;;;;;5063908;28;20400;-43
2022/03/17 07:32:18;;;;;;;5.25;2.00;;;9.70;99.90;;;;;;5072274;28;20036;-44
2022/03/17 07:34:45;;;;;;;7.57;2.35;;;9.80;99.90;;;;;;5084227;28;20487;-38
2022/03/17 07:37:10;;;;;;;9.07;2.83;;;9.80;99.90;;;;;;5071721;28;20388;-42
2022/03/17 07:39:36;;;;;;;11.27;2.50;;;9.70;99.90;;;;;;5084683;28;20043;-43
2022/03/17 07:42:04;;;;;;;7.00;2.10;;;9.70;99.90;;;;;;5074216;28;20029;-39
2022/03/17 07:44:30;;;;;;;8.40;2.53;;;9.60;99.90;;;;;;5092306;28;20502;-43
2022/03/17 07:46:55;;;;;;;11.35;1.95;;;9.60;99.90;;;;;;5090438;28;20024;-41
2022/03/17 07:49:21;;;;;;;9.02;2.22;;;9.60;99.90;;;;;;5096325;28;20032;-42
2022/03/17 07:51:46;;;;;;;6.22;1.63;;;9.50;99.90;;;;;;5093327;28;20048;-41
2022/03/17 07:54:12;;;;;;;8.00;1.63;;;9.50;99.90;;;;;;5074665;28;20430;-40
2022/03/17 07:56:38;;;;;;;6.13;1.40;;;9.50;99.90;;;;;;5073166;28;20031;-39
2022/03/17 07:59:03;;;;;;;7.45;1.98;;;9.50;99.90;;;;;;5076005;28;20052;-41
2022/03/17 08:01:29;;;;;;;12.15;1.95;;;9.40;99.90;;;;;;5070683;28;20490;-41
2022/03/17 08:03:55;;;;;;;7.65;1.88;;;9.40;99.90;;;;;;5080050;28;20028;-42
2022/03/17 08:06:22;;;;;;;8.60;2.10;;;9.30;99.90;;;;;;5069623;28;20027;-38
2022/03/17 08:08:47;;;;;;;6.50;1.38;;;9.30;99.90;;;;;;5079323;28;20108;-41
2022/03/17 08:11:13;;;;;;;6.28;1.67;;;9.40;99.90;;;;;;5069573;28;20048;-41
2022/03/17 08:13:40;;;;;;;10.07;1.75;;;9.40;99.90;;;;;;5080255;28;20111;-39
2022/03/17 08:16:06;;;;;;;6.13;1.80;;;9.50;99.90;;;;;;5069787;28;20024;-41
2022/03/17 08:18:34;;;;;;;7.25;2.25;;;9.60;99.90;;;;;;5081006;28;20046;-40
2022/03/17 08:20:59;;;;;;;7.63;1.95;;;9.70;99.90;;;;;;5067619;28;20468;-41
2022/03/17 08:23:25;;;;;;;8.13;1.90;;;9.70;99.90;;;;;;5080570;28;20134;-39
2022/03/17 08:25:51;;;;;;;9.13;2.17;;;9.70;99.90;;;;;;5068416;28;20488;-43
2022/03/17 08:28:18;;;;;;;8.10;1.77;;;9.70;99.90;;;;;;5077094;28;20104;-42
2022/03/17 08:30:48;;;;;;;7.80;2.13;;;9.80;99.90;;;;;;5071202;28;20025;-42
2022/03/17 08:33:15;;;;;;;7.07;1.60;;;9.80;99.90;;;;;;5075689;28;20133;-42
2022/03/17 08:35:41;;;;;;;6.82;1.83;;;9.80;99.90;;;;;;5084684;28;20015;-42
2022/03/17 08:38:07;;;;;;;6.90;1.58;;;9.70;99.90;;;;;;5094603;28;20043;-42
2022/03/17 08:40:33;;;;;;;5.55;1.48;;;9.80;99.90;;;;;;5075363;28;20036;-42
2022/03/17 08:42:59;;;;;;;5.03;1.38;;;9.80;99.90;;;;;;5069865;28;20546;-41
2022/03/17 08:50:54;;;;;;;6.47;1.40;;;10.00;99.90;;;;;;5075297;28;20059;-42
2022/03/17 08:53:20;;;;;;;6.60;1.67;;;10.00;99.90;;;;;;5070995;28;20035;-41
2022/03/17 08:55:45;;;;;;;7.43;1.63;;;10.10;99.90;;;;;;5076724;28;20037;-39
2022/03/17 08:58:12;;;;;;;9.25;1.50;;;10.10;99.90;;;;;;5068539;28;20427;-41
2022/03/17 09:00:37;;;;;;;5.38;1.20;;;10.00;99.90;;;;;;5079039;28;20774;-41
2022/03/17 09:03:07;;;;;;;7.95;1.20;;;10.10;99.90;;;;;;5068181;28;20029;-40
2022/03/17 09:05:35;;;;;;;5.63;1.25;;;10.10;99.90;;;;;;5079372;28;20170;-44
2022/03/17 09:08:04;;;;;;;6.80;1.70;;;10.10;99.90;;;;;;5068157;28;20043;-42
2022/03/17 09:10:34;;;;;;;4.78;1.30;;;10.20;99.90;;;;;;5074723;28;20028;-41
2022/03/17 09:13:06;;;;;;;7.70;1.92;;;10.20;99.90;;;;;;5087845;28;20027;-42
2022/03/17 09:15:32;;;;;;;8.23;1.42;;;10.20;99.90;;;;;;5073848;28;20028;-43
2022/03/17 09:17:58;;;;;;;10.27;2.42;;;10.20;99.90;;;;;;5087526;28;20027;-42
2022/03/17 09:20:24;;;;;;;7.93;1.70;;;10.10;99.90;;;;;;5075012;28;20032;-42
2022/03/17 09:22:50;;;;;;;10.43;2.08;;;10.20;99.90;;;;;;5066345;28;20028;-38
2022/03/17 09:25:18;;;;;;;7.00;1.60;;;10.20;99.90;;;;;;5077852;28;20035;-42
2022/03/17 09:27:44;;;;;;;9.73;1.65;;;10.10;99.90;;;;;;5069187;28;20106;-39
2022/03/17 09:30:10;;;;;;;10.02;1.90;;;10.20;99.90;;;;;;5073950;28;20052;-40
2022/03/17 09:32:35;;;;;;;5.95;1.33;;;10.30;99.90;;;;;;5071794;28;20130;-38
2022/03/17 09:35:02;;;;;;;5.35;1.77;;;10.30;99.90;;;;;;5072267;28;20036;-43
2022/03/17 09:37:28;;;;;;;5.55;1.20;;;10.30;99.90;;;;;;5074473;28;20021;-40
2022/03/17 09:39:53;;;;;;;7.68;1.65;;;10.30;99.90;;;;;;5069032;28;20773;-41
2022/03/17 09:42:21;;;;;;;8.13;1.80;;;10.40;99.90;;;;;;5077566;28;20112;-41
2022/03/17 09:44:52;;;;;;;8.75;1.65;;;10.40;99.90;;;;;;5065721;28;20020;-41
2022/03/17 09:47:20;;;;;;;5.40;1.70;;;10.40;99.90;;;;;;5078961;28;20025;-42
2022/03/17 09:49:48;;;;;;;4.68;1.73;;;10.40;99.90;;;;;;5067738;28;20039;-42
2022/03/17 09:52:17;;;;;;;7.60;1.92;;;10.50;99.90;;;;;;5077935;28;20053;-43
2022/03/17 09:54:44;;;;;;;8.98;2.08;;;10.40;99.90;;;;;;5066714;28;20043;-42
2022/03/17 09:57:10;;;;;;;7.40;1.65;;;10.50;99.90;;;;;;5078537;28;20029;-42
2022/03/17 09:59:36;;;;;;;4.97;1.55;;;10.60;99.90;;;;;;5066372;28;20040;-43
2022/03/17 10:02:02;;;;;;;6.35;1.60;;;10.70;99.90;;;;;;5079395;28;20252;-42
2022/03/17 10:04:32;;;;;;;14.05;2.65;;;10.70;99.90;;;;;;5066760;28;20420;-40
2022/03/17 10:06:59;;;;;;;8.82;2.10;;;10.70;99.70;;;;;;5078549;28;20020;-42
2022/03/17 10:09:25;;;;;;;8.07;1.42;;;10.70;99.90;;;;;;5066415;28;20025;-41
2022/03/17 10:12:01;;;;;;;5.82;1.90;;;10.70;99.60;;;;;;5075679;28;20063;-42
2022/03/17 10:14:53;;;;;;;8.25;2.00;;;10.60;99.70;;;;;;5067393;28;20066;-43
2022/03/17 10:17:39;;;;;;;7.97;2.20;;;10.40;99.90;;;;;;5075710;28;20028;-43
2022/03/17 10:20:14;;;;;;;11.60;1.98;;;10.40;99.90;;;;;;5064880;28;20029;-42
2022/03/17 10:23:01;;;;;;;8.48;2.05;;;10.40;99.90;;;;;;5078752;28;20032;-42
2022/03/17 10:25:31;;;;;;;5.15;1.80;;;10.40;99.90;;;;;;5066778;28;20028;-42
2022/03/17 10:27:57;;;;;;;10.60;1.98;;;10.40;99.90;;;;;;5078022;28;20029;-43
2022/03/17 10:30:34;;;;;;;5.10;1.77;;;10.30;99.90;;;;;;5066247;28;20031;-42
2022/03/17 10:33:14;;;;;;;11.45;2.75;;;10.20;99.90;;;;;;5077463;28;20081;-40
2022/03/17 10:35:45;;;;;;;6.40;1.95;;;10.20;99.90;;;;;;5066578;28;20345;-44
2022/03/17 10:38:16;;;;;;;5.55;1.40;;;10.30;99.90;;;;;;5078712;28;20028;-42
2022/03/17 10:40:43;;;;;;;5.03;2.05;;;10.30;99.50;;;;;;5065127;28;20149;-42
2022/03/17 10:43:22;;;;;;;9.80;2.10;;;10.30;99.30;;;;;;5078151;28;20050;-42
2022/03/17 10:46:02;;;;;;;6.00;2.28;;;10.20;99.50;;;;;;5065621;28;20024;-41
2022/03/17 10:48:28;;;;;;;6.10;2.05;;;10.30;99.60;;;;;;5077439;28;20028;-42
2022/03/17 10:50:53;;;;;;;6.13;1.70;;;10.40;99.60;;;;;;5065330;28;20111;-41
2022/03/17 10:53:27;;;;;;;4.80;1.73;;;10.40;99.50;;;;;;5076768;28;20039;-42
2022/03/17 10:55:52;;;;;;;10.05;2.08;;;10.50;99.60;;;;;;5065032;28;20074;-42
2022/03/17 10:58:20;;;;;;;8.40;2.05;;;10.50;99.50;;;;;;5074971;28;20047;-41
2022/03/17 11:00:49;;;;;;;6.97;1.80;;;10.50;99.40;;;;;;5068287;28;20033;-42
2022/03/17 11:03:16;;;;;;;5.97;1.85;;;10.50;99.60;;;;;;5072366;28;20104;-41
2022/03/17 11:05:42;;;;;;;8.57;2.47;;;10.60;99.70;;;;;;5070737;28;20024;-43
2022/03/17 11:08:11;;;;;;;8.30;2.15;;;10.70;99.60;;;;;;5069913;28;20027;-42
2022/03/17 11:10:39;;;;;;;6.43;2.30;;;10.70;99.30;;;;;;5072358;28;20054;-42
2022/03/17 11:13:09;;;;;;;5.43;2.00;;;10.70;99.40;;;;;;5068628;28;20462;-41
2022/03/17 11:15:38;;;;;;;5.63;2.10;;;10.80;99.40;;;;;;5069650;28;20039;-40
2022/03/17 11:18:06;;;;;;;5.78;2.22;;;10.90;99.40;;;;;;5066815;28;20126;-41
2022/03/17 11:20:32;;;;;;;6.82;2.20;;;10.90;98.90;;;;;;5075682;28;20106;-41
2022/03/17 11:23:20;;;;;;;7.03;1.90;;;11.00;99.10;;;;;;5065913;28;20012;-42
2022/03/17 11:25:57;;;;;;;5.10;2.38;;;11.10;99.00;;;;;;5075182;28;20046;-41
2022/03/17 11:28:30;;;;;;;5.07;2.00;;;11.10;98.70;;;;;;5084387;28;20020;-43
2022/03/17 11:31:00;;;;;;;4.78;1.70;;;11.10;98.60;;;;;;5073451;28;20825;-41
2022/03/17 11:33:29;;;;;;;7.47;2.10;;;11.10;98.60;;;;;;5084061;28;20024;-38
2022/03/17 11:35:59;;;;;;;5.05;2.03;;;11.20;98.90;;;;;;5073798;28;20036;-39
2022/03/17 11:38:37;;;;;;;9.48;2.13;;;11.20;98.70;;;;;;5083324;28;20036;-42
2022/03/17 11:41:17;;;;;;;4.18;2.03;;;11.20;98.60;;;;;;5073887;28;20024;-40
2022/03/17 11:43:45;;;;;;;9.60;1.92;;;11.20;98.70;;;;;;5082714;28;20028;-42
2022/03/17 11:46:12;;;;;;;5.82;1.70;;;11.30;98.80;;;;;;5073795;28;20027;-43
2022/03/17 11:48:38;;;;;;;3.85;1.55;;;11.20;98.10;;;;;;5076126;28;20431;-42
2022/03/17 11:51:05;;;;;;;4.20;1.48;;;11.20;97.80;;;;;;5075605;28;20475;-42
2022/03/17 11:53:39;;;;;;;3.45;1.52;;;11.20;98.10;;;;;;5103392;28;20046;-45
2022/03/17 11:56:07;;;;;;;6.88;1.73;;;11.10;98.10;;;;;;5072779;28;20665;-41
2022/03/17 11:58:46;;;;;;;5.60;1.50;;;11.10;98.10;;;;;;5085762;28;20172;-41
2022/03/17 12:01:34;;;;;;;5.90;1.80;;;11.20;97.50;;;;;;5078533;28;20025;-41
2022/03/17 12:04:05;;;;;;;7.60;1.77;;;11.20;96.40;;;;;;5064952;28;20085;-44
2022/03/17 12:06:36;;;;;;;4.63;1.77;;;11.30;96.40;;;;;;5075667;28;20844;-42
2022/03/17 12:09:09;;;;;;;5.70;1.92;;;11.30;96.10;;;;;;5064847;28;20016;-43
2022/03/17 12:11:38;;;;;;;;;;;11.40;96.40;;;;;;5077354;28;20017;-42
2022/03/17 12:14:17;;;;;;;3.97;2.10;;;11.40;96.00;;;;;;5064867;28;19908;-38
2022/03/17 12:16:55;;;;;;;3.65;1.90;;;11.40;95.90;;;;;;5076979;28;20055;-41
2022/03/17 12:19:31;;;;;;;5.18;1.90;;;11.50;95.80;;;;;;5064289;28;20068;-42
2022/03/17 12:22:03;;;;;;;5.05;1.63;;;11.50;95.20;;;;;;5071942;28;20089;-41
2022/03/17 12:24:35;;;;;;;4.85;1.58;;;11.50;94.80;;;;;;5085062;28;20024;-42
2022/03/17 12:27:22;;;;;;;3.03;1.23;;;11.60;95.20;;;;;;5071102;28;20130;-41
2022/03/17 12:30:08;;;;;;;2.38;1.38;;;11.80;95.20;;;;;;5088358;28;20035;-41
2022/03/17 12:32:38;;;;;;;5.05;1.75;;;11.90;94.60;;;;;;5075699;28;20020;-41
2022/03/17 12:35:05;;;;;;;2.90;1.42;;;12.10;94.50;;;;;;5088074;28;20028;-42
2022/03/17 12:37:33;;;;;;;4.88;1.67;;;12.10;94.00;;;;;;5076547;28;20028;-42
2022/03/17 12:40:00;;;;;;;3.58;1.30;;;12.20;93.20;;;;;;5087512;28;20032;-41
2022/03/17 12:42:28;;;;;;;6.07;1.48;;;12.20;93.50;;;;;;5075612;28;20372;-42
2022/03/17 12:45:05;;;;;;;4.55;1.60;;;12.20;93.50;;;;;;5088781;28;20024;-40
2022/03/17 12:47:34;;;;;;;5.60;1.77;;;12.10;93.00;;;;;;5074730;28;20201;-41
2022/03/17 12:50:00;;;;;;;3.88;1.92;;;12.10;93.30;;;;;;5088584;28;20023;-42
2022/03/17 12:52:28;;;;;;;7.75;2.22;;;11.90;93.40;;;;;;5076153;28;20098;-40
2022/03/17 12:54:59;;;;;;;8.18;2.15;;;11.90;93.30;;;;;;5087385;28;20111;-41
2022/03/17 12:57:27;;;;;;;7.13;1.85;;;11.90;93.40;;;;;;5077414;28;20048;-41
2022/03/17 12:59:53;;;;;;;4.43;1.50;;;11.80;93.10;;;;;;5085496;28;20036;-40
2022/03/17 13:02:19;;;;;;;7.03;1.70;;;11.90;92.70;;;;;;5079249;28;20013;-40
2022/03/17 13:04:49;;;;;;;4.68;1.52;;;12.00;93.00;;;;;;5083675;28;20024;-42
2022/03/17 13:07:15;;;;;;;3.90;1.40;;;12.10;93.00;;;;;;5081938;28;20027;-41